Surface/Precipitation History
02/24/2017 11:08  to  2/25/2017 11:08
Change End Date:
Date/Time
(MST)
Sf
Temp Chem Water Layer Surface Precipitation
Sfc Pvt Sub Frz Factor Pct Dpth DpthThk IcePct Cond Salin FI Type Intens Accum Rate
02/25/2017 11:00 Chemically Wet 27.7F - 31F 29F 95 10% - - 36% 23 mhos 2715 - Other Other 0.00 in -
02/25/2017 10:57 Chemically Wet 27.7F - 31F 29F 95 11% - - 31% 25 mhos 2927 - Other Other 0.00 in -
02/25/2017 10:47 Chemically Wet 27.7F - 31F 29F 95 10% - - 41% 21 mhos 2519 - Other Other 0.00 in -
02/25/2017 10:45 Chemically Wet 27.9F - 31F 29F 95 9% - - 42% 20 mhos 2386 - Other Other 0.00 in -
02/25/2017 10:37 Chemically Wet 27.7F - 31F 31F 95 5% - - 72% 10 mhos 1196 - Other Other 0.00 in -
02/25/2017 10:30 Chemically Wet 27.7F - 31F 31F 95 3% - - 79% 8 mhos 900 - Other Other 0.00 in -
02/25/2017 10:27 Chemically Wet 27.7F - 31F 31F 95 3% - - 82% 7 mhos 766 - Other Other 0.00 in -
02/25/2017 10:17 Ice Warning 27.1F - 31F 32F 95 1% - - 95% 2 mhos 242 - Other Other 0.00 in -
02/25/2017 10:15 Ice Warning 27.3F - 31F 32F 95 1% - - 95% 2 mhos 230 - Other Other 0.00 in -
02/25/2017 10:07 Ice Warning 27.0F - 31F 32F 95 0% - - 99% 0 mhos 32 - Other Other 0.00 in -
02/25/2017 10:00 Ice Warning 26.4F - 31F 32F 95 0% - - 99% 1 mhos 61 - Other Other 0.00 in -
02/25/2017 09:57 Ice Warning 26.4F - 31F 32F 95 0% - - 99% 1 mhos 81 - Other Other 0.00 in -
02/25/2017 09:47 Ice Warning 26.2F - 31F 32F 95 0% - - 99% 1 mhos 62 - Other Other 0.00 in -
02/25/2017 09:45 Ice Warning 26.2F - 31F 32F 95 0% - - 99% 0 mhos 34 - Other Other 0.00 in -
02/25/2017 09:37 Ice Warning 25.7F - 31F 32F 95 0% - - 100% 0 mhos 26 - Other Other 0.00 in -
Date/Time
(MST)
Sf
Temp Chem Water Layer Surface Precipitation
Sfc Pvt Sub Frz Factor Pct Dpth DpthThk IcePct Cond Salin FI Type Intens Accum Rate
02/25/2017 09:30 Ice Warning 25.0F - 31F 32F 95 0% - - 100% 0 mhos 14 - Other Other 0.00 in -
02/25/2017 09:27 Ice Warning 25.0F - 31F 32F 95 0% - - 100% 0 mhos 14 - Other Other 0.00 in -
02/25/2017 09:17 Ice Warning 24.6F - 31F 32F 95 0% - - 100% 0 mhos 12 - Other Other 0.00 in -
02/25/2017 09:15 Ice Warning 24.6F - 31F 32F 95 0% - - 100% 0 mhos 12 - Other Other 0.00 in -
02/25/2017 09:07 Ice Warning 24.3F - 31F 32F 95 0% - - 100% 0 mhos 13 - Other Other 0.00 in -
02/25/2017 09:00 Ice Warning 24.1F - 31F 32F 95 0% - - 100% 0 mhos 11 - Other Other 0.00 in -
02/25/2017 08:57 Ice Warning 23.9F - 31F 32F 95 0% - - 100% 0 mhos 11 - Other Other 0.00 in -
02/25/2017 08:47 Ice Warning 23.2F - 31F 32F 95 0% - - 100% 0 mhos 9 - Other Other 0.00 in -
02/25/2017 08:45 Ice Warning 23.2F - 31F 32F 95 0% - - 100% 0 mhos 9 - Other Other 0.00 in -
02/25/2017 08:37 Ice Warning 23.0F - 31F 32F 95 0% - - 100% 0 mhos 9 - Other Other 0.00 in -
02/25/2017 08:30 Ice Warning 22.8F - 31F 32F 95 0% - - 100% 0 mhos 9 - Other Other 0.00 in -
02/25/2017 08:27 Ice Warning 22.8F - 31F 32F 95 0% - - 100% 0 mhos 9 - Other Other 0.00 in -
02/25/2017 08:17 Ice Warning 22.8F - 31F 32F 95 0% - - 100% 0 mhos 9 - Other Other 0.00 in -
02/25/2017 08:15 Ice Warning 22.6F - 31F 32F 95 0% - - 100% 0 mhos 9 - Other Other 0.00 in -
02/25/2017 08:07 Ice Warning 23.0F - 31F 32F 95 0% - - 100% 0 mhos 9 - Other Other 0.00 in -
Date/Time
(MST)
Sf
Temp Chem Water Layer Surface Precipitation
Sfc Pvt Sub Frz Factor Pct Dpth DpthThk IcePct Cond Salin FI Type Intens Accum Rate
02/25/2017 08:00 Ice Warning 22.8F - 31F 32F 80 0% - - 100% 0 mhos 8 - Other Other 0.00 in -
02/25/2017 07:57 Ice Warning 23.0F - 31F 32F 55 0% - - 100% 0 mhos 7 - Other Other 0.00 in -
02/25/2017 07:47 Ice Warning 23.0F - 31F 32F 25 0% - - 100% 0 mhos 7 - Other Other 0.00 in -
02/25/2017 07:45 Ice Warning 23.0F - 31F 32F 25 0% - - 100% 0 mhos 7 - Other Other 0.00 in -
02/25/2017 07:36 Ice Warning 23.2F - 31F 32F 20 0% - - 100% 0 mhos 7 - Other Other 0.00 in -
02/25/2017 07:30 Ice Warning 23.0F - 31F 32F 25 0% - - 100% 0 mhos 7 - Other Other 0.00 in -
02/25/2017 07:26 Ice Warning 22.8F - 31F 32F 25 0% - - 100% 0 mhos 8 - Other Other 0.00 in -
02/25/2017 07:16 Ice Warning 22.8F - 31F 32F 25 0% - - 100% 0 mhos 8 - Other Other 0.00 in -
02/25/2017 07:15 Ice Warning 22.8F - 31F 32F 25 0% - - 100% 0 mhos 8 - Other Other 0.00 in -
02/25/2017 07:06 Ice Warning 22.8F - 31F 32F 25 0% - - 100% 0 mhos 9 - Other Other 0.00 in -
02/25/2017 07:00 Ice Warning 22.5F - 31F 32F 35 0% - - 100% 0 mhos 9 - Other Other 0.00 in -
02/25/2017 06:56 Ice Warning 22.5F - 31F 32F 35 0% - - 100% 0 mhos 9 - Other Other 0.00 in -
02/25/2017 06:46 Ice Warning 22.1F - 31F 32F 40 0% - - 100% 0 mhos 9 - Other Other 0.00 in -
02/25/2017 06:45 Ice Warning 22.1F - 31F 32F 40 0% - - 100% 0 mhos 9 - Other Other 0.00 in -
02/25/2017 06:36 Ice Warning 21.9F - 31F 32F 40 0% - - 100% 0 mhos 8 - Other Other 0.00 in -
Date/Time
(MST)
Sf
Temp Chem Water Layer Surface Precipitation
Sfc Pvt Sub Frz Factor Pct Dpth DpthThk IcePct Cond Salin FI Type Intens Accum Rate
02/25/2017 06:30 Ice Warning 21.7F - 31F 32F 35 0% - - 100% 0 mhos 8 - Other Other 0.00 in -
02/25/2017 06:26 Ice Warning 21.6F - 31F 32F 35 0% - - 100% 0 mhos 8 - Other Other 0.00 in -
02/25/2017 06:16 Ice Warning 21.4F - 31F 32F 25 0% - - 100% 0 mhos 8 - Other Other 0.00 in -
02/25/2017 06:15 Ice Warning 21.6F - 31F 32F 25 0% - - 100% 0 mhos 8 - Other Other 0.00 in -
02/25/2017 06:06 Ice Warning 20.8F - 31F 32F 20 0% - - 100% 0 mhos 8 - Other Other 0.00 in -
02/25/2017 06:00 Ice Warning 20.7F - 31F 32F 20 0% - - 100% 0 mhos 7 - Other Other 0.00 in -
02/25/2017 05:56 Ice Warning 20.7F - 31F 32F 20 0% - - 100% 0 mhos 8 - Other Other 0.00 in -
02/25/2017 05:46 Ice Warning 20.7F - 31F 32F 20 0% - - 100% 0 mhos 7 - Other Other 0.00 in -
02/25/2017 05:45 Ice Warning 20.8F - 31F 32F 20 0% - - 100% 0 mhos 7 - Other Other 0.00 in -
02/25/2017 05:36 Ice Warning 21.4F - 31F 32F 20 0% - - 100% 0 mhos 8 - Other Other 0.00 in -
02/25/2017 05:30 Ice Warning 21.7F - 31F 32F 20 0% - - 100% 0 mhos 8 - Other Other 0.00 in -
02/25/2017 05:26 Ice Warning 21.9F - 31F 32F 15 0% - - 100% 0 mhos 8 - Other Other 0.00 in -
02/25/2017 05:16 Ice Warning 22.1F - 31F 32F 15 0% - - 100% 0 mhos 8 - Other Other 0.00 in -
02/25/2017 05:15 Ice Warning 22.1F - 31F 32F 15 0% - - 100% 0 mhos 8 - Other Other 0.00 in -
02/25/2017 05:06 Ice Warning 22.1F - 31F 32F 15 0% - - 100% 0 mhos 8 - Other Other 0.00 in -
Date/Time
(MST)
Sf
Temp Chem Water Layer Surface Precipitation
Sfc Pvt Sub Frz Factor Pct Dpth DpthThk IcePct Cond Salin FI Type Intens Accum Rate
02/25/2017 05:00 Ice Warning 22.1F - 31F 32F 15 0% - - 100% 0 mhos 7 - Other Other 0.00 in -
02/25/2017 04:56 Ice Warning 22.1F - 31F 32F 15 0% - - 100% 0 mhos 8 - Other Other 0.00 in -
02/25/2017 04:46 Ice Warning 22.1F - 31F 32F 15 0% - - 100% 0 mhos 8 - Other Other 0.00 in -
02/25/2017 04:45 Ice Warning 22.3F - 31F 32F 15 0% - - 100% 0 mhos 8 - Other Other 0.00 in -
02/25/2017 04:36 Ice Warning 22.3F - 31F 32F 15 0% - - 100% 0 mhos 8 - Other Other 0.00 in -
02/25/2017 04:30 Ice Warning 22.5F - 31F 32F 15 0% - - 100% 0 mhos 8 - Other Other 0.00 in -
02/25/2017 04:26 Ice Warning 22.3F - 31F 32F 15 0% - - 100% 0 mhos 8 - Other Other 0.00 in -
02/25/2017 04:16 Ice Warning 22.3F - 31F 32F 15 0% - - 100% 0 mhos 7 - Other Other 0.00 in -
02/25/2017 04:15 Ice Warning 22.3F - 31F 32F 15 0% - - 100% 0 mhos 7 - Other Other 0.00 in -
02/25/2017 04:06 Ice Warning 22.3F - 31F 32F 15 0% - - 100% 0 mhos 7 - Other Other 0.00 in -
02/25/2017 04:00 Ice Warning 22.3F - 31F 32F 15 0% - - 100% 0 mhos 7 - Other Other 0.00 in -
02/25/2017 03:56 Ice Warning 22.6F - 31F 32F 15 0% - - 100% 0 mhos 7 - Other Other 0.00 in -
02/25/2017 03:46 Ice Warning 22.5F - 31F 32F 10 0% - - 100% 0 mhos 6 - Other Other 0.00 in -
02/25/2017 03:45 Ice Warning 22.6F - 31F 32F 10 0% - - 100% 0 mhos 5 - Other Other 0.00 in -
02/25/2017 03:36 Ice Warning 22.1F - 31F 32F 5 0% - - 100% 0 mhos 5 - Other Other 0.00 in -
Date/Time
(MST)
Sf
Temp Chem Water Layer Surface Precipitation
Sfc Pvt Sub Frz Factor Pct Dpth DpthThk IcePct Cond Salin FI Type Intens Accum Rate
02/25/2017 03:30 Ice Warning 22.1F - 31F 32F 5 0% - - 100% 0 mhos 6 - Other Other 0.00 in -
02/25/2017 03:26 Ice Warning 21.9F - 31F 32F 5 0% - - 100% 0 mhos 6 - Other Other 0.00 in -
02/25/2017 03:16 Ice Warning 21.6F - 31F 32F 5 0% - - 100% 0 mhos 7 - Other Other 0.00 in -
02/25/2017 03:15 Ice Warning 21.6F - 31F 32F 5 0% - - 100% 0 mhos 7 - Other Other 0.00 in -
02/25/2017 03:06 Ice Warning 21.4F - 31F 32F 10 0% - - 100% 0 mhos 7 - Other Other 0.00 in -
02/25/2017 03:00 Ice Warning 21.0F - 31F 32F 10 0% - - 100% 0 mhos 7 - Other Other 0.00 in -
02/25/2017 02:56 Ice Warning 21.0F - 31F 32F 15 0% - - 100% 0 mhos 7 - Other Other 0.00 in -
02/25/2017 02:46 Ice Warning 20.8F - 31F 32F 15 0% - - 100% 0 mhos 5 - Other Other 0.00 in -
02/25/2017 02:45 Ice Warning 20.8F - 31F 32F 15 0% - - 100% 0 mhos 5 - Other Other 0.00 in -
02/25/2017 02:36 Ice Warning 21.0F - 31F 32F 5 0% - - 100% 0 mhos 3 - Other Other 0.00 in -
02/25/2017 02:30 Dry 20.8F - 31F - - - - - - 0 mhos 0 - Other Other 0.00 in -
02/25/2017 02:26 Dry 20.1F - 31F - - - - - - 0 mhos 0 - Other Other 0.00 in -
02/25/2017 02:16 Dry 19.9F - 31F - - - - - - 0 mhos 0 - Other Other 0.00 in -
02/25/2017 02:15 Dry 19.9F - 31F - - - - - - 0 mhos 0 - Other Other 0.00 in -
02/25/2017 02:06 Dry 20.1F - 31F - - - - - - 0 mhos 0 - Other Other 0.00 in -
Date/Time
(MST)
Sf
Temp Chem Water Layer Surface Precipitation
Sfc Pvt Sub Frz Factor Pct Dpth DpthThk IcePct Cond Salin FI Type Intens Accum Rate
02/25/2017 02:00 Dry 20.3F - 31F - - - - - - 0 mhos 0 - Other Other 0.00 in -
02/25/2017 01:56 Dry 20.3F - 31F - - - - - - 0 mhos 0 - Other Other 0.00 in -
02/25/2017 01:46 Dry 20.7F - 31F - - - - - - 0 mhos 0 - Other Other 0.00 in -
02/25/2017 01:45 Dry 20.7F - 31F - - - - - - 0 mhos 0 - Other Other 0.00 in -
02/25/2017 01:35 Dry 20.8F - 31F - - - - - - 0 mhos 0 - Other Other 0.00 in -
02/25/2017 01:30 Dry 20.8F - 31F - - - - - - 0 mhos 0 - Other Other 0.00 in -
02/25/2017 01:25 Dry 21.0F - 31F - - - - - - 0 mhos 0 - Other Other 0.00 in -
02/25/2017 01:15 Dry 21.6F - 31F - - - - - - 0 mhos 0 - Other Other 0.00 in -
02/25/2017 01:15 Dry 21.6F - 31F - - - - - - 0 mhos 0 - Other Other 0.00 in -
02/25/2017 01:05 Dry 22.1F - 31F - - - - - - 0 mhos 0 - Other Other 0.00 in -
02/25/2017 01:00 Dry 22.3F - 31F - - - - - - 0 mhos 0 - Other Other 0.00 in -
02/25/2017 00:55 Dry 22.5F - 31F - - - - - - 0 mhos 0 - Other Other 0.00 in -
02/25/2017 00:45 Dry 22.6F - 31F - - - - - - 0 mhos 0 - Other Other 0.00 in -
02/25/2017 00:45 Dry 22.6F - 31F - - - - - - 0 mhos 0 - Other Other 0.00 in -
02/25/2017 00:35 Dry 23.0F - 31F - - - - - - 0 mhos 0 - Other Other 0.00 in -
Date/Time
(MST)
Sf
Temp Chem Water Layer Surface Precipitation
Sfc Pvt Sub Frz Factor Pct Dpth DpthThk IcePct Cond Salin FI Type Intens Accum Rate
02/25/2017 00:30 Dry 23.2F - 31F - - - - - - 0 mhos 0 - Other Other 0.00 in -
02/25/2017 00:25 Dry 23.2F - 31F - - - - - - 0 mhos 0 - Other Other 0.00 in -
02/25/2017 00:15 Dry 23.0F - 31F - - - - - - 0 mhos 0 - Other Other 0.00 in -
02/25/2017 00:15 Dry 23.0F - 31F - - - - - - 0 mhos 0 - Other Other 0.00 in -
02/25/2017 00:05 Dry 22.8F - 31F - - - - - - 0 mhos 0 - Other Other 0.00 in -
02/25/2017 00:00 Dry 23.0F - 31F - - - - - - 0 mhos 0 - Other Other 0.00 in -
02/24/2017 23:55 Dry 23.2F - 31F - - - - - - 0 mhos 0 - Other Other 0.00 in -
02/24/2017 23:45 Dry 23.4F - 31F - - - - - - 0 mhos 0 - Other Other 0.00 in -
02/24/2017 23:45 Dry 23.4F - 31F - - - - - - 0 mhos 0 - Other Other 0.00 in -
02/24/2017 23:35 Dry 23.5F - 31F - - - - - - 0 mhos 0 - Other Other 0.00 in -
02/24/2017 23:30 Dry 23.7F - 31F - - - - - - 0 mhos 0 - Other Other 0.00 in -
02/24/2017 23:25 Dry 23.5F - 31F - - - - - - 0 mhos 0 - Other Other 0.00 in -
02/24/2017 23:15 Dry 23.7F - 31F - - - - - - 0 mhos 1 - Other Other 0.00 in -
02/24/2017 23:15 Dry 23.7F - 31F - - - - - - 0 mhos 1 - Other Other 0.00 in -
02/24/2017 23:05 Dry 23.7F - 31F - - - - - - 0 mhos 1 - Other Other 0.00 in -
Date/Time
(MST)
Sf
Temp Chem Water Layer Surface Precipitation
Sfc Pvt Sub Frz Factor Pct Dpth DpthThk IcePct Cond Salin FI Type Intens Accum Rate
02/24/2017 23:00 Dry 23.5F - 31F - - - - - - 0 mhos 2 - Other Other 0.00 in -
02/24/2017 22:55 Dry 23.5F - 31F - - - - - - 0 mhos 2 - Other Other 0.00 in -
02/24/2017 22:45 Dry 23.4F - 31F - - - - - - 0 mhos 4 - Other Other 0.00 in -
02/24/2017 22:45 Dry 23.2F - 31F - - - - - - 0 mhos 3 - Other Other 0.00 in -
02/24/2017 22:35 Dry 23.2F - 31F - - - - - - 0 mhos 2 - Other Other 0.00 in -
02/24/2017 22:30 Dry 23.5F - 31F - - - - - - 0 mhos 1 - Other Other 0.00 in -
02/24/2017 22:25 Dry 23.4F - 31F - - - - - - 0 mhos 2 - Other Other 0.00 in -
02/24/2017 22:15 Ice Warning 23.2F - 31F 32F 5 0% - - 100% 0 mhos 2 - Other Other 0.00 in -
02/24/2017 22:15 Ice Warning 23.2F - 31F 32F 5 0% - - 100% 0 mhos 2 - Other Other 0.00 in -
02/24/2017 22:05 Ice Warning 23.4F - 31F 32F 5 0% - - 100% 0 mhos 2 - Other Other 0.00 in -
02/24/2017 22:00 Ice Warning 23.4F - 31F 32F 5 0% - - 100% 0 mhos 2 - Other Other 0.00 in -
02/24/2017 21:55 Ice Warning 23.7F - 31F 32F 5 0% - - 100% 0 mhos 2 - Other Other 0.00 in -
02/24/2017 21:45 Ice Warning 23.2F - 31F 32F 5 0% - - 100% 0 mhos 3 - Other Other 0.00 in -
02/24/2017 21:45 Ice Warning 23.2F - 31F 32F 5 0% - - 100% 0 mhos 3 - Other Other 0.00 in -
02/24/2017 21:35 Ice Warning 23.2F - 31F 32F 5 0% - - 100% 0 mhos 4 - Other Other 0.00 in -
Date/Time
(MST)
Sf
Temp Chem Water Layer Surface Precipitation
Sfc Pvt Sub Frz Factor Pct Dpth DpthThk IcePct Cond Salin FI Type Intens Accum Rate
02/24/2017 21:30 Ice Warning 23.2F - 31F 32F 10 0% - - 100% 0 mhos 4 - Other Other 0.00 in -
02/24/2017 21:25 Ice Warning 23.2F - 31F 32F 10 0% - - 100% 0 mhos 5 - Other Other 0.00 in -
02/24/2017 21:15 Ice Warning 23.2F - 31F 32F 10 0% - - 100% 0 mhos 5 - Other Other 0.00 in -
02/24/2017 21:15 Ice Warning 23.2F - 31F 32F 10 0% - - 100% 0 mhos 5 - Other Other 0.00 in -
02/24/2017 21:05 Ice Warning 23.5F - 31F 32F 10 0% - - 100% 0 mhos 7 - Other Other 0.00 in -
02/24/2017 21:00 Ice Warning 23.7F - 31F 32F 15 0% - - 100% 0 mhos 7 - Other Other 0.00 in -
02/24/2017 20:55 Ice Warning 24.1F - 31F 32F 15 0% - - 100% 0 mhos 7 - Other Other 0.00 in -
02/24/2017 20:45 Ice Warning 24.8F - 31F 32F 15 0% - - 100% 0 mhos 5 - Other Other 0.00 in -
02/24/2017 20:45 Ice Warning 24.8F - 31F 32F 15 0% - - 100% 0 mhos 5 - Other Other 0.00 in -
02/24/2017 20:35 Ice Warning 25.5F - 31F 32F 5 0% - - 100% 0 mhos 3 - Other Other 0.00 in -
02/24/2017 20:30 Dry 25.7F - 31F - - - - - - 0 mhos 2 - Other Other 0.00 in -
02/24/2017 20:25 Dry 25.5F - 31F - - - - - - 0 mhos 0 - Other Other 0.00 in -
02/24/2017 20:15 Dry 25.3F - 31F - - - - - - 0 mhos 0 - Other Other 0.00 in -
02/24/2017 20:15 Dry 25.3F - 31F - - - - - - 0 mhos 0 - Other Other 0.00 in -
02/24/2017 20:05 Dry 25.0F - 31F - - - - - - 0 mhos 0 - Other Other 0.00 in -
Date/Time
(MST)
Sf
Temp Chem Water Layer Surface Precipitation
Sfc Pvt Sub Frz Factor Pct Dpth DpthThk IcePct Cond Salin FI Type Intens Accum Rate
02/24/2017 20:00 Dry 24.8F - 31F - - - - - - 0 mhos 0 - Other Other 0.00 in -
02/24/2017 19:55 Dry 24.3F - 31F - - - - - - 0 mhos 0 - Other Other 0.00 in -
02/24/2017 19:45 Dry 24.3F - 31F - - - - - - 0 mhos 0 - Other Other 0.00 in -
02/24/2017 19:45 Dry 24.3F - 31F - - - - - - 0 mhos 0 - Other Other 0.00 in -
02/24/2017 19:35 Dry 25.2F - 31F - - - - - - 0 mhos 0 - Other Other 0.00 in -
02/24/2017 19:30 Dry 25.2F - 31F - - - - - - 0 mhos 0 - Other Other 0.00 in -
02/24/2017 19:25 Dry 25.3F - 31F - - - - - - 0 mhos 0 - Other Other 0.00 in -
02/24/2017 19:15 Dry 25.7F - 31F - - - - - - 0 mhos 0 - Other Other 0.00 in -
02/24/2017 19:15 Dry 25.7F - 31F - - - - - - 0 mhos 0 - Other Other 0.00 in -
02/24/2017 19:04 Dry 26.4F - 31F - - - - - - 0 mhos 0 - Other Other 0.00 in -
02/24/2017 19:00 Dry 26.1F - 31F - - - - - - 0 mhos 0 - Other Other 0.00 in -
02/24/2017 18:54 Dry 25.7F - 31F - - - - - - 0 mhos 0 - Other Other 0.00 in -
02/24/2017 18:45 Dry 26.4F - 31F - - - - - - 0 mhos 2 - Other Other 0.00 in -
02/24/2017 18:44 Dry 26.4F - 31F - - - - - - 0 mhos 2 - Other Other 0.00 in -
02/24/2017 18:34 Dry 27.1F - 31F - - - - - - 0 mhos 4 - Other Other 0.00 in -
Date/Time
(MST)
Sf
Temp Chem Water Layer Surface Precipitation
Sfc Pvt Sub Frz Factor Pct Dpth DpthThk IcePct Cond Salin FI Type Intens Accum Rate
02/24/2017 18:30 Dry 27.1F - 31F - - - - - - 0 mhos 5 - Other Other 0.00 in -
02/24/2017 18:24 Dry 27.7F - 31F - - - - - - 0 mhos 6 - Other Other 0.00 in -
02/24/2017 18:15 Dry 28.6F - 31F - - - - - - 0 mhos 7 - Other Other 0.00 in -
02/24/2017 18:14 Dry 28.8F - 31F - - - - - - 0 mhos 7 - Other Other 0.00 in -
02/24/2017 18:04 Ice Warning 30.2F - 31F 32F 5 0% - - 100% 0 mhos 8 - Other Other 0.00 in -
02/24/2017 18:00 Ice Warning 30.9F - 31F 32F 10 0% - - 99% 0 mhos 11 - Other Other 0.00 in -
02/24/2017 17:54 Ice Warning 31.8F - 31F 32F 15 0% - - 90% 0 mhos 20 - Other Other 0.00 in -
02/24/2017 17:45 Wet 32.7F - 31F 32F 5 0% 0.00 in - 0% 0 mhos 20 - Other Other 0.00 in -
02/24/2017 17:44 Dry 32.7F - 31F - - - - - - 0 mhos 16 - Other Other 0.00 in -
02/24/2017 17:34 Dry 32.5F - 31F - - - - - - 0 mhos 2 - Other Other 0.00 in -
02/24/2017 17:30 Dry 32.9F - 31F - - - - - - 0 mhos 1 - Other Other 0.00 in -
02/24/2017 17:24 Dry 33.6F - 31F - - - - - - 0 mhos 0 - Other Other 0.00 in -
02/24/2017 17:15 Dry 33.8F - 31F - - - - - - 0 mhos 0 - Other Other 0.00 in -
02/24/2017 17:14 Dry 33.8F - 31F - - - - - - 0 mhos 0 - Other Other 0.00 in -
02/24/2017 17:04 Dry 34.9F - 31F - - - - - - 0 mhos 0 - Other Other 0.00 in -
Date/Time
(MST)
Sf
Temp Chem Water Layer Surface Precipitation
Sfc Pvt Sub Frz Factor Pct Dpth DpthThk IcePct Cond Salin FI Type Intens Accum Rate
02/24/2017 17:00 Dry 35.4F - 31F - - - - - - 0 mhos 0 - Other Other 0.00 in -
02/24/2017 16:54 Dry 36.0F - 31F - - - - - - 0 mhos 0 - Other Other 0.00 in -
02/24/2017 16:45 Dry 36.9F - 31F - - - - - - 0 mhos 0 - Other Other 0.00 in -
02/24/2017 16:44 Dry 36.9F - 31F - - - - - - 0 mhos 0 - Other Other 0.00 in -
02/24/2017 16:34 Dry 37.8F - 31F - - - - - - 0 mhos 0 - Other Other 0.00 in -
02/24/2017 16:30 Dry 37.8F - 31F - - - - - - 0 mhos 0 - Other Other 0.00 in -
02/24/2017 16:24 Dry 38.5F - 31F - - - - - - 0 mhos 0 - Other Other 0.00 in -
02/24/2017 16:15 Dry 38.3F - 31F - - - - - - 0 mhos 0 - Other Other 0.00 in -
02/24/2017 16:14 Dry 38.5F - 31F - - - - - - 0 mhos 0 - Other Other 0.00 in -
02/24/2017 16:04 Dry 38.5F - 31F - - - - - - 0 mhos 0 - Other Other 0.00 in -
02/24/2017 16:00 Dry 39.4F - 31F - - - - - - 0 mhos 0 - Other Other 0.00 in -
02/24/2017 15:54 Dry 40.6F - 31F - - - - - - 0 mhos 0 - Other Other 0.00 in -
02/24/2017 15:45 Dry 42.3F - 31F - - - - - - 0 mhos 0 - Other Other 0.00 in -
02/24/2017 15:44 Dry 42.6F - 31F - - - - - - 0 mhos 0 - Other Other 0.00 in -
02/24/2017 15:34 Dry 46.9F - 31F - - - - - - 0 mhos 0 - Other Other 0.00 in -
Date/Time
(MST)
Sf
Temp Chem Water Layer Surface Precipitation
Sfc Pvt Sub Frz Factor Pct Dpth DpthThk IcePct Cond Salin FI Type Intens Accum Rate
02/24/2017 15:30 Dry 45.3F - 31F - - - - - - 0 mhos 0 - Other Other 0.00 in -
02/24/2017 15:24 Dry 40.6F - 31F - - - - - - 0 mhos 0 - Other Other 0.00 in -
02/24/2017 15:15 Dry 40.5F - 31F - - - - - - 0 mhos 0 - Other Other 0.00 in -
02/24/2017 15:14 Dry 40.3F - 31F - - - - - - 0 mhos 0 - Other Other 0.00 in -
02/24/2017 15:04 Dry 40.6F - 31F - - - - - - 0 mhos 0 - Other Other 0.00 in -
02/24/2017 15:00 Dry 40.6F - 31F - - - - - - 0 mhos 0 - Other Other 0.00 in -
02/24/2017 14:54 Dry 41.0F - 31F - - - - - - 0 mhos 0 - Other Other 0.00 in -
02/24/2017 14:45 Dry 41.9F - 31F - - - - - - 0 mhos 0 - Other Other 0.00 in -
02/24/2017 14:44 Dry 41.9F - 31F - - - - - - 0 mhos 0 - Other Other 0.00 in -
02/24/2017 14:34 Dry 41.7F - 31F - - - - - - 0 mhos 0 - Other Other 0.00 in -
02/24/2017 14:30 Dry 41.4F - 31F - - - - - - 0 mhos 0 - Other Other 0.00 in -
02/24/2017 14:24 Dry 41.0F - 31F - - - - - - 0 mhos 0 - Other Other 0.00 in -
02/24/2017 14:15 Dry 41.0F - 31F - - - - - - 0 mhos 0 - Other Other 0.00 in -
02/24/2017 14:14 Dry 41.0F - 31F - - - - - - 0 mhos 0 - Other Other 0.00 in -
02/24/2017 14:04 Dry 42.1F - 31F - - - - - - 0 mhos 0 - Other Other 0.00 in -
Date/Time
(MST)
Sf
Temp Chem Water Layer Surface Precipitation
Sfc Pvt Sub Frz Factor Pct Dpth DpthThk IcePct Cond Salin FI Type Intens Accum Rate
02/24/2017 14:00 Dry 43.3F - 31F - - - - - - 0 mhos 0 - Other Other 0.00 in -
02/24/2017 13:54 Dry 45.7F - 31F - - - - - - 0 mhos 0 - Other Other 0.00 in -
02/24/2017 13:45 Dry 47.8F - 31F - - - - - - 0 mhos 0 - Other Other 0.00 in -
02/24/2017 13:44 Dry 47.5F - 31F - - - - - - 0 mhos 0 - Other Other 0.00 in -
02/24/2017 13:33 Dry 44.4F - 31F - - - - - - 0 mhos 0 - Other Other 0.00 in -
02/24/2017 13:30 Dry 44.6F - 31F - - - - - - 0 mhos 0 - Other Other 0.00 in -
02/24/2017 13:23 Dry 43.9F - 31F - - - - - - 0 mhos 0 - Other Other 0.00 in -
02/24/2017 13:15 Dry 42.6F - 31F - - - - - - 0 mhos 1 - Other Other 0.00 in -
02/24/2017 13:13 Dry 43.2F - 31F - - - - - - 0 mhos 0 - Other Other 0.00 in -
02/24/2017 13:03 Dry 44.2F - 31F - - - - - - 0 mhos 0 - Other Other 0.00 in -
02/24/2017 13:00 Dry 45.5F - 31F - - - - - - 0 mhos 0 - Other Other 0.00 in -
02/24/2017 12:53 Dry 48.4F - 31F - - - - - - 0 mhos 0 - Other Other 0.00 in -
02/24/2017 12:45 Dry 49.3F - 31F - - - - - - 0 mhos 0 - Other Other 0.00 in -
02/24/2017 12:43 Dry 48.0F - 31F - - - - - - 0 mhos 0 - Other Other 0.00 in -
02/24/2017 12:33 Dry 42.8F - 31F - - - - - - 0 mhos 0 - Other Other 0.00 in -
Date/Time
(MST)
Sf
Temp Chem Water Layer Surface Precipitation
Sfc Pvt Sub Frz Factor Pct Dpth DpthThk IcePct Cond Salin FI Type Intens Accum Rate
02/24/2017 12:30 Dry 43.3F - 31F - - - - - - 0 mhos 0 - Other Other 0.00 in -
02/24/2017 12:23 Dry 46.8F - 31F - - - - - - 0 mhos 0 - Other Other 0.00 in -
02/24/2017 12:15 Dry 52.9F - 31F - - - - - - 0 mhos 0 - Other Other 0.00 in -
02/24/2017 12:13 Dry 54.0F - 31F - - - - - - 0 mhos 0 - Other Other 0.00 in -
02/24/2017 12:03 Dry 54.3F - 31F - - - - - - 0 mhos 0 - Other Other 0.00 in -
02/24/2017 12:00 Dry 52.0F - 31F - - - - - - 0 mhos 0 - Other Other 0.00 in -
02/24/2017 11:53 Dry 47.1F - 31F - - - - - - 0 mhos 0 - Other Other 0.00 in -
02/24/2017 11:45 Dry 40.1F - 31F - - - - - - 0 mhos 0 - Other Other 0.00 in -
02/24/2017 11:43 Dry 40.8F - 31F - - - - - - 0 mhos 0 - Other Other 0.00 in -
02/24/2017 11:33 Dry 44.1F - 31F - - - - - - 0 mhos 0 - Other Other 0.00 in -
02/24/2017 11:30 Dry 44.2F - 31F - - - - - - 0 mhos 0 - Other Other 0.00 in -
02/24/2017 11:23 Dry 44.6F - 31F - - - - - - 0 mhos 0 - Other Other 0.00 in -
02/24/2017 11:15 Dry 41.5F - 31F - - - - - - 0 mhos 0 - Other Other 0.00 in -
02/24/2017 11:13 Dry 40.8F - 31F - - - - - - 0 mhos 0 - Other Other 0.00 in -
Change End Date:

Copyright © 1998-2015 Vaisala, Inc.
All Rights Reserved
Send comments about the data to:
SCAN Web ® is a registered trademark of Vaisala, Inc.
SCAN Web Version 6.0